Time;durP1;ratioP1;P1;durP2;ratioP2;P2;SDS_P1;SDS_P2;PMS_P1;PMS_P2;Temp;Humidity;BMP_temperature;BMP_pressure;BME280_temperature;BME280_humidity;BME280_pressure;Samples;Min_cycle;Max_cycle;Signal;HPM_P1;HPM_P2
2024/04/18 00:01:24;;;;;;;1.50;1.40;;;7.70;99.90;;;;;;5468469;26;20455;-75
2024/04/18 00:03:54;;;;;;;1.33;1.33;;;7.80;99.90;;;;;;5470400;26;20461;-77
2024/04/18 00:06:22;;;;;;;1.40;1.30;;;7.80;99.90;;;;;;5477407;26;20521;-77
2024/04/18 00:08:52;;;;;;;1.23;1.23;;;7.70;99.90;;;;;;5462685;26;20477;-77
2024/04/18 00:11:19;;;;;;;1.30;1.20;;;7.60;99.90;;;;;;5468833;26;20465;-76
2024/04/18 00:13:49;;;;;;;1.20;1.20;;;7.60;99.90;;;;;;5469286;26;21135;-78
2024/04/18 00:16:17;;;;;;;1.73;1.40;;;7.50;99.90;;;;;;5469429;26;20464;-79
2024/04/18 00:18:49;;;;;;;1.50;1.40;;;7.50;99.90;;;;;;5469092;26;20511;-77
2024/04/18 00:21:16;;;;;;;1.40;1.20;;;7.50;99.90;;;;;;5470441;26;20472;-76
2024/04/18 00:23:46;;;;;;;3.20;1.40;;;7.60;99.90;;;;;;5466225;26;21061;-76
2024/04/18 00:26:13;;;;;;;1.50;1.40;;;7.50;99.90;;;;;;5470680;26;20461;-78
2024/04/18 00:28:43;;;;;;;1.70;1.50;;;7.50;99.90;;;;;;5469905;26;20545;-78
2024/04/18 00:31:11;;;;;;;1.13;1.13;;;7.50;99.90;;;;;;5470174;26;20464;-74
2024/04/18 00:33:41;;;;;;;1.27;1.17;;;7.60;99.90;;;;;;5470475;26;20474;-78
2024/04/18 00:36:10;;;;;;;1.60;1.40;;;7.60;99.90;;;;;;5472502;26;20479;-79
2024/04/18 00:38:40;;;;;;;1.27;1.27;;;7.50;99.90;;;;;;5470458;26;20601;-75
2024/04/18 00:41:09;;;;;;;1.43;1.43;;;7.50;99.90;;;;;;5468641;26;20499;-79
2024/04/18 00:43:38;;;;;;;1.30;1.23;;;7.50;99.90;;;;;;5470459;26;21203;-78
2024/04/18 00:46:06;;;;;;;1.30;1.30;;;7.60;99.90;;;;;;5470585;26;20460;-76
2024/04/18 00:48:37;;;;;;;1.50;1.40;;;7.60;99.90;;;;;;5466376;26;20533;-80
2024/04/18 00:51:05;;;;;;;1.57;1.20;;;7.50;99.90;;;;;;5471778;26;20470;-75
2024/04/18 00:53:38;;;;;;;1.40;1.30;;;7.60;99.90;;;;;;5467407;26;21170;-79
2024/04/18 00:56:06;;;;;;;1.30;1.30;;;7.60;99.90;;;;;;5474334;26;20532;-78
2024/04/18 00:58:36;;;;;;;1.33;1.27;;;7.60;99.90;;;;;;5468084;26;20542;-80
2024/04/18 01:01:04;;;;;;;1.30;1.20;;;7.60;99.90;;;;;;5465139;26;20477;-77
2024/04/18 01:03:34;;;;;;;1.10;1.10;;;7.50;99.90;;;;;;5470492;26;20519;-75
2024/04/18 01:06:02;;;;;;;1.50;1.40;;;7.60;99.90;;;;;;5468267;26;20529;-77
2024/04/18 01:08:32;;;;;;;1.43;1.33;;;7.60;99.90;;;;;;5474495;26;20460;-76
2024/04/18 01:11:02;;;;;;;2.30;1.30;;;7.60;99.90;;;;;;5469192;26;20527;-75
2024/04/18 01:13:37;;;;;;;1.20;1.20;;;7.50;99.90;;;;;;5473595;26;20473;-77
2024/04/18 01:16:05;;;;;;;1.50;1.40;;;7.50;99.90;;;;;;5471894;26;20522;-77
2024/04/18 01:18:35;;;;;;;1.30;1.30;;;7.50;99.90;;;;;;5463323;26;20483;-77
2024/04/18 01:21:03;;;;;;;1.53;1.43;;;7.50;99.90;;;;;;5464436;26;20476;-79
2024/04/18 01:23:33;;;;;;;2.00;1.80;;;7.50;99.90;;;;;;5464555;26;20470;-75
2024/04/18 01:26:03;;;;;;;2.40;1.53;;;7.50;99.90;;;;;;5471199;26;20530;-78
2024/04/18 01:28:35;;;;;;;1.53;1.43;;;7.40;99.90;;;;;;5467952;26;20490;-75
2024/04/18 01:31:03;;;;;;;1.47;1.40;;;7.40;99.90;;;;;;5469459;26;20513;-78
2024/04/18 01:33:34;;;;;;;1.87;1.50;;;7.40;99.90;;;;;;5472687;26;20466;-76
2024/04/18 01:36:01;;;;;;;1.40;1.30;;;7.40;99.90;;;;;;5473376;26;20513;-75
2024/04/18 01:38:31;;;;;;;2.73;1.67;;;7.30;99.90;;;;;;5473271;26;20575;-76
2024/04/18 01:40:59;;;;;;;1.60;1.50;;;7.40;99.90;;;;;;5494262;25;20484;-77
2024/04/18 01:43:29;;;;;;;1.97;1.50;;;7.40;99.90;;;;;;5467765;26;20478;-75
2024/04/18 01:45:58;;;;;;;1.73;1.50;;;7.40;99.90;;;;;;5465487;26;20474;-76
2024/04/18 01:48:28;;;;;;;1.50;1.40;;;7.40;99.90;;;;;;5471059;26;20450;-77
2024/04/18 01:50:56;;;;;;;1.80;1.70;;;7.40;99.90;;;;;;5464707;26;20469;-74
2024/04/18 01:53:28;;;;;;;1.53;1.43;;;7.50;99.90;;;;;;5470224;26;20466;-77
2024/04/18 01:55:55;;;;;;;1.93;1.83;;;7.60;99.90;;;;;;5469446;26;20527;-77
2024/04/18 01:58:25;;;;;;;1.30;1.30;;;7.50;99.90;;;;;;5465834;26;20573;-75
2024/04/18 02:00:52;;;;;;;1.70;1.60;;;7.40;99.90;;;;;;5466293;26;20464;-78
2024/04/18 02:03:25;;;;;;;1.70;1.60;;;7.40;99.90;;;;;;5469849;26;20818;-77
2024/04/18 02:05:52;;;;;;;1.70;1.60;;;7.30;99.90;;;;;;5467521;26;20528;-74
2024/04/18 02:08:22;;;;;;;1.60;1.50;;;7.30;99.90;;;;;;5468345;26;20468;-77
2024/04/18 02:10:49;;;;;;;1.53;1.43;;;7.40;99.90;;;;;;5471802;26;20465;-74
2024/04/18 02:13:19;;;;;;;1.70;1.60;;;7.40;99.90;;;;;;5469453;26;20536;-74
2024/04/18 02:15:47;;;;;;;2.33;1.90;;;7.40;99.90;;;;;;5465566;26;20828;-76
2024/04/18 02:18:17;;;;;;;1.40;1.30;;;7.50;99.90;;;;;;5460105;26;20498;-77
2024/04/18 02:20:47;;;;;;;2.00;1.90;;;7.40;99.90;;;;;;5472084;26;20582;-79
2024/04/18 02:23:17;;;;;;;1.90;1.80;;;7.50;99.90;;;;;;5469108;26;22848;-77
2024/04/18 02:25:44;;;;;;;1.53;1.43;;;7.50;99.90;;;;;;5470868;26;20453;-77
2024/04/18 02:28:14;;;;;;;1.70;1.60;;;7.50;99.90;;;;;;5471960;26;20554;-77
2024/04/18 02:30:41;;;;;;;1.60;1.50;;;7.50;99.90;;;;;;5475225;26;20830;-75
2024/04/18 02:33:11;;;;;;;1.90;1.80;;;7.50;99.90;;;;;;5469130;26;20520;-78
2024/04/18 02:35:39;;;;;;;1.90;1.80;;;7.60;99.90;;;;;;5468430;26;22501;-80
2024/04/18 02:38:11;;;;;;;1.60;1.50;;;7.60;99.90;;;;;;5468594;26;20457;-76
2024/04/18 02:40:41;;;;;;;2.17;2.07;;;7.70;99.90;;;;;;5470990;26;21055;-78
2024/04/18 02:43:12;;;;;;;1.70;1.60;;;7.60;99.90;;;;;;5471770;26;20536;-79
2024/04/18 02:45:43;;;;;;;1.77;1.67;;;7.50;99.90;;;;;;5466354;26;20469;-79
2024/04/18 02:48:10;;;;;;;1.60;1.50;;;7.40;99.90;;;;;;5468622;26;21135;-78
2024/04/18 02:50:40;;;;;;;1.70;1.60;;;7.40;99.90;;;;;;5469841;26;20529;-79
2024/04/18 02:53:10;;;;;;;1.63;1.53;;;7.30;99.90;;;;;;5474231;26;20472;-77
2024/04/18 02:55:40;;;;;;;1.60;1.50;;;7.30;99.90;;;;;;5466947;26;20970;-75
2024/04/18 02:58:07;;;;;;;1.73;1.63;;;7.30;99.90;;;;;;5468822;26;20464;-78
2024/04/18 03:00:40;;;;;;;1.70;1.60;;;7.30;99.90;;;;;;5469976;26;20468;-79
2024/04/18 03:03:08;;;;;;;1.63;1.53;;;7.20;99.90;;;;;;5465632;26;20532;-76
2024/04/18 03:05:38;;;;;;;1.70;1.60;;;7.20;99.90;;;;;;5467011;26;20566;-76
2024/04/18 03:08:05;;;;;;;1.70;1.60;;;7.20;99.90;;;;;;5471969;26;20468;-76
2024/04/18 03:10:38;;;;;;;1.93;1.83;;;7.10;99.90;;;;;;5469808;26;21001;-77
2024/04/18 03:13:05;;;;;;;2.40;2.30;;;7.20;99.90;;;;;;5458581;26;20534;-77
2024/04/18 03:15:35;;;;;;;1.93;1.83;;;7.10;99.90;;;;;;5468260;26;20484;-75
2024/04/18 03:18:02;;;;;;;2.00;1.70;;;7.10;99.90;;;;;;5470028;26;20475;-77
2024/04/18 03:20:32;;;;;;;1.80;1.70;;;7.10;99.90;;;;;;5468639;26;20467;-77
2024/04/18 03:23:02;;;;;;;1.67;1.67;;;7.10;99.90;;;;;;5467026;26;20446;-77
2024/04/18 03:25:32;;;;;;;2.00;1.90;;;7.10;99.90;;;;;;5468213;26;20450;-78
2024/04/18 03:28:02;;;;;;;1.80;1.70;;;7.10;99.90;;;;;;5466015;26;20477;-75
2024/04/18 03:30:32;;;;;;;3.30;3.10;;;7.00;99.90;;;;;;5468929;26;20993;-78
2024/04/18 03:32:59;;;;;;;1.97;1.87;;;7.00;99.90;;;;;;5468366;26;20899;-77
2024/04/18 03:35:29;;;;;;;2.33;2.13;;;6.90;99.90;;;;;;5469577;26;20489;-75
2024/04/18 03:37:59;;;;;;;2.53;2.33;;;6.90;99.90;;;;;;5470202;26;20993;-78
2024/04/18 03:40:30;;;;;;;2.10;2.00;;;7.00;99.90;;;;;;5467424;25;20569;-78
2024/04/18 03:43:00;;;;;;;2.27;2.17;;;7.00;99.90;;;;;;5463470;26;20468;-78
2024/04/18 03:45:32;;;;;;;2.00;1.90;;;7.10;99.90;;;;;;5468856;26;20480;-75
2024/04/18 03:48:00;;;;;;;2.20;2.00;;;7.10;99.90;;;;;;5471813;26;20559;-76
2024/04/18 03:50:30;;;;;;;2.23;1.80;;;7.20;99.90;;;;;;5471054;26;20468;-76
2024/04/18 03:52:57;;;;;;;2.73;2.57;;;7.10;99.90;;;;;;5470930;26;21356;-77
2024/04/18 03:55:27;;;;;;;2.07;1.97;;;7.10;99.90;;;;;;5468714;26;20479;-77
2024/04/18 03:57:54;;;;;;;2.00;1.90;;;7.20;99.90;;;;;;5471184;26;20476;-77
2024/04/18 04:00:24;;;;;;;2.60;2.40;;;7.20;99.90;;;;;;5461064;26;20487;-76
2024/04/18 04:02:54;;;;;;;1.90;1.80;;;7.10;99.90;;;;;;5465754;26;21029;-78
2024/04/18 04:05:24;;;;;;;2.50;2.40;;;7.20;99.90;;;;;;5471297;26;20467;-77
2024/04/18 04:07:51;;;;;;;2.10;2.00;;;7.20;99.90;;;;;;5469497;26;20469;-78
2024/04/18 04:10:21;;;;;;;1.90;1.80;;;7.20;99.90;;;;;;5471597;26;21010;-78
2024/04/18 04:12:48;;;;;;;2.37;2.27;;;7.20;99.90;;;;;;5471854;26;20867;-75
2024/04/18 04:15:18;;;;;;;2.47;2.30;;;7.20;99.90;;;;;;5469499;26;20890;-75
2024/04/18 04:17:46;;;;;;;2.80;2.60;;;7.20;99.90;;;;;;5470912;26;20516;-78
2024/04/18 04:20:18;;;;;;;2.00;1.90;;;7.20;99.90;;;;;;5465020;26;20562;-76
2024/04/18 04:22:46;;;;;;;3.07;2.30;;;7.20;99.90;;;;;;5470280;26;20514;-75
2024/04/18 04:25:16;;;;;;;2.30;2.10;;;7.20;99.90;;;;;;5467503;26;20490;-75
2024/04/18 04:27:43;;;;;;;2.93;2.63;;;7.20;99.90;;;;;;5472291;26;20461;-74
2024/04/18 04:30:13;;;;;;;2.27;2.17;;;7.20;99.90;;;;;;5470444;26;20445;-76
2024/04/18 04:32:41;;;;;;;2.90;2.80;;;7.20;99.90;;;;;;5472080;26;20524;-77
2024/04/18 04:35:12;;;;;;;2.87;2.50;;;7.10;99.90;;;;;;5466810;26;20463;-78
2024/04/18 04:37:42;;;;;;;2.30;2.10;;;7.20;99.90;;;;;;5471592;26;20906;-75
2024/04/18 04:40:12;;;;;;;4.30;3.47;;;7.30;99.90;;;;;;5471116;26;20898;-75
2024/04/18 04:42:39;;;;;;;3.13;2.93;;;7.30;99.90;;;;;;5469608;26;21095;-75
2024/04/18 04:45:10;;;;;;;3.27;2.97;;;7.30;99.90;;;;;;5460478;26;20470;-75
2024/04/18 04:47:37;;;;;;;3.20;2.87;;;7.30;99.90;;;;;;5471697;26;20870;-78
2024/04/18 04:50:08;;;;;;;3.67;2.97;;;7.20;99.90;;;;;;5473002;26;20484;-75
2024/04/18 04:52:35;;;;;;;2.97;2.77;;;7.30;99.90;;;;;;5467975;26;20523;-77
2024/04/18 04:55:08;;;;;;;2.60;2.43;;;7.30;99.90;;;;;;5470837;26;20450;-80
2024/04/18 04:57:35;;;;;;;3.17;2.97;;;7.30;99.90;;;;;;5471715;26;20901;-75
2024/04/18 05:00:06;;;;;;;2.90;2.70;;;7.30;99.90;;;;;;5459462;26;21051;-79
2024/04/18 05:02:33;;;;;;;2.80;2.70;;;7.20;99.90;;;;;;5471180;26;20531;-77
2024/04/18 05:05:03;;;;;;;2.97;2.77;;;7.30;99.90;;;;;;5464778;26;21055;-75
2024/04/18 05:07:30;;;;;;;3.10;2.90;;;7.30;99.90;;;;;;5465278;26;20552;-77
2024/04/18 05:10:00;;;;;;;3.53;3.33;;;7.30;99.90;;;;;;5469028;26;20460;-75
2024/04/18 05:12:30;;;;;;;3.43;3.13;;;7.40;99.90;;;;;;5466776;26;20447;-78
2024/04/18 05:15:00;;;;;;;3.60;3.30;;;7.40;99.90;;;;;;5465374;26;20476;-76
2024/04/18 05:17:28;;;;;;;3.53;3.03;;;7.30;99.90;;;;;;5461858;25;20552;-77
2024/04/18 05:19:57;;;;;;;3.00;2.80;;;7.40;99.90;;;;;;5461687;26;21005;-74
2024/04/18 05:22:25;;;;;;;4.50;3.60;;;7.40;99.90;;;;;;5474679;26;20543;-74
2024/04/18 05:24:54;;;;;;;3.70;3.50;;;7.40;99.90;;;;;;5471751;26;20535;-75
2024/04/18 05:27:22;;;;;;;3.93;3.67;;;7.40;99.90;;;;;;5468561;26;20477;-77
2024/04/18 05:32:40;;;;;;;4.37;4.03;;;7.40;99.90;;;;;;5463487;26;20525;-75
2024/04/18 05:35:10;;;;;;;4.13;3.83;;;7.40;99.90;;;;;;5467417;26;21102;-77
2024/04/18 05:37:40;;;;;;;4.50;4.20;;;7.40;99.90;;;;;;5463343;26;20470;-75
2024/04/18 05:40:11;;;;;;;4.20;4.00;;;7.40;99.90;;;;;;5466889;26;20466;-76
2024/04/18 05:42:41;;;;;;;3.93;3.67;;;7.50;99.90;;;;;;5470368;26;20464;-76
2024/04/18 05:45:13;;;;;;;3.50;3.30;;;7.40;99.90;;;;;;5467715;26;20459;-76
2024/04/18 05:47:43;;;;;;;3.60;3.50;;;7.50;99.90;;;;;;5472087;26;20570;-76
2024/04/18 05:50:13;;;;;;;3.60;3.30;;;7.40;99.90;;;;;;5467835;26;20449;-78
2024/04/18 05:52:43;;;;;;;3.40;3.20;;;7.40;99.90;;;;;;5476823;26;21077;-78
2024/04/18 05:55:13;;;;;;;3.57;3.37;;;7.50;99.90;;;;;;5471261;26;20484;-74
2024/04/18 05:57:43;;;;;;;3.50;3.30;;;7.50;99.90;;;;;;5465129;26;20514;-77
2024/04/18 06:00:16;;;;;;;3.60;3.40;;;7.50;99.90;;;;;;5467838;26;20460;-75
2024/04/18 06:02:46;;;;;;;3.70;3.40;;;7.50;99.90;;;;;;5471426;26;20563;-78
2024/04/18 06:05:16;;;;;;;3.73;3.53;;;7.50;99.90;;;;;;5467388;26;20501;-78
2024/04/18 06:07:46;;;;;;;3.73;3.53;;;7.50;99.90;;;;;;5467208;26;20474;-75
2024/04/18 06:10:16;;;;;;;2.67;2.57;;;7.60;99.90;;;;;;5469262;26;20454;-77
2024/04/18 06:12:46;;;;;;;3.20;2.90;;;7.60;99.90;;;;;;5465004;26;20529;-76
2024/04/18 06:15:18;;;;;;;3.30;3.10;;;7.60;99.90;;;;;;5469445;26;20469;-78
2024/04/18 06:17:48;;;;;;;3.50;3.40;;;7.70;99.90;;;;;;5470770;26;20469;-78
2024/04/18 06:20:18;;;;;;;3.50;3.30;;;7.60;99.90;;;;;;5471436;26;20994;-77
2024/04/18 06:22:48;;;;;;;3.50;3.30;;;7.70;99.90;;;;;;5469736;26;20457;-75
2024/04/18 06:25:19;;;;;;;3.80;3.60;;;7.70;99.90;;;;;;5461227;26;20563;-76
2024/04/18 06:27:49;;;;;;;3.17;2.97;;;7.70;99.90;;;;;;5468843;26;20461;-75
2024/04/18 06:30:22;;;;;;;3.60;3.30;;;7.70;99.90;;;;;;5471705;26;20469;-76
2024/04/18 06:32:52;;;;;;;4.03;3.83;;;7.70;99.90;;;;;;5468303;26;20501;-76
2024/04/18 06:35:22;;;;;;;4.27;4.07;;;7.70;99.90;;;;;;5466811;26;20464;-76
2024/04/18 06:37:52;;;;;;;3.90;3.60;;;7.70;99.90;;;;;;5468246;26;20503;-79
2024/04/18 06:40:24;;;;;;;4.17;3.87;;;7.70;99.90;;;;;;5470807;26;20485;-77
2024/04/18 06:42:55;;;;;;;4.37;4.17;;;7.70;99.90;;;;;;5470920;26;20548;-76
2024/04/18 06:45:28;;;;;;;3.67;3.50;;;7.80;99.90;;;;;;5472566;26;20480;-73
2024/04/18 06:47:58;;;;;;;4.43;4.13;;;7.90;99.90;;;;;;5465341;26;20472;-76
2024/04/18 06:50:29;;;;;;;4.10;3.80;;;7.90;99.90;;;;;;5467662;26;20470;-76
2024/04/18 06:52:59;;;;;;;4.40;4.10;;;7.90;99.90;;;;;;5465513;26;20477;-76
2024/04/18 06:55:29;;;;;;;5.30;4.90;;;7.90;99.90;;;;;;5472494;26;20507;-78
2024/04/18 06:57:59;;;;;;;3.83;3.63;;;7.90;99.90;;;;;;5468946;26;20999;-76
2024/04/18 07:00:32;;;;;;;3.77;3.57;;;7.90;99.90;;;;;;5468109;26;21167;-77
2024/04/18 07:03:03;;;;;;;4.47;4.10;;;7.90;99.90;;;;;;5465541;26;20593;-74
2024/04/18 07:05:33;;;;;;;3.50;3.20;;;7.90;99.90;;;;;;5471786;26;20464;-75
2024/04/18 07:08:03;;;;;;;3.70;3.43;;;8.00;99.90;;;;;;5465355;26;20479;-74
2024/04/18 07:10:33;;;;;;;3.60;3.40;;;7.90;99.90;;;;;;5463825;26;20465;-75
2024/04/18 07:13:03;;;;;;;3.87;3.67;;;7.90;99.90;;;;;;5465548;26;20515;-74
2024/04/18 07:15:35;;;;;;;3.60;3.40;;;7.90;99.90;;;;;;5473239;26;20551;-74
2024/04/18 07:18:06;;;;;;;3.10;2.90;;;8.00;99.90;;;;;;5468704;26;20476;-77
2024/04/18 07:20:38;;;;;;;3.40;3.20;;;8.20;99.90;;;;;;5472318;26;20513;-75
2024/04/18 07:23:09;;;;;;;3.63;3.10;;;8.20;99.90;;;;;;5472120;26;20474;-74
2024/04/18 07:25:37;;;;;;;3.50;3.20;;;8.40;99.90;;;;;;5473335;26;20476;-74
2024/04/18 07:28:07;;;;;;;3.03;2.87;;;8.40;99.90;;;;;;5476307;26;20457;-76
2024/04/18 07:30:39;;;;;;;3.33;3.13;;;8.50;99.90;;;;;;5474897;26;20558;-74
2024/04/18 07:33:09;;;;;;;2.70;2.60;;;8.40;99.90;;;;;;5470854;26;21082;-76
2024/04/18 07:35:40;;;;;;;3.00;2.90;;;8.50;99.90;;;;;;5472102;25;20464;-77
2024/04/18 07:38:10;;;;;;;2.93;2.77;;;8.50;99.90;;;;;;5472561;26;20513;-76
2024/04/18 07:40:40;;;;;;;2.70;2.60;;;8.40;99.90;;;;;;5473719;26;20460;-73
2024/04/18 07:43:10;;;;;;;3.30;3.10;;;8.30;99.90;;;;;;5469300;26;20565;-75
2024/04/18 07:45:43;;;;;;;3.07;2.87;;;8.30;99.90;;;;;;5473746;26;20514;-75
2024/04/18 07:48:13;;;;;;;2.90;2.80;;;8.30;99.90;;;;;;5467230;26;20528;-76
2024/04/18 07:50:43;;;;;;;2.43;2.23;;;8.20;99.90;;;;;;5474147;26;20483;-75
2024/04/18 07:53:13;;;;;;;1.83;1.67;;;8.00;99.90;;;;;;5471905;26;20516;-76
2024/04/18 07:55:44;;;;;;;2.10;2.00;;;7.90;99.90;;;;;;5469062;26;20523;-73
2024/04/18 07:58:13;;;;;;;2.00;1.90;;;7.80;99.90;;;;;;5477248;26;20463;-77
2024/04/18 08:00:50;;;;;;;2.63;2.43;;;7.70;99.90;;;;;;5472356;26;20480;-79
2024/04/18 08:03:23;;;;;;;2.33;2.23;;;7.60;99.90;;;;;;5471012;26;20469;-76
2024/04/18 08:05:57;;;;;;;2.07;1.97;;;7.50;99.90;;;;;;5472652;26;20477;-77
2024/04/18 08:08:31;;;;;;;2.23;2.13;;;7.50;99.90;;;;;;5478027;26;20473;-73
2024/04/18 08:11:08;;;;;;;2.43;2.33;;;7.40;99.90;;;;;;5477613;26;20463;-75
2024/04/18 08:13:58;;;;;;;2.37;2.27;;;7.40;99.90;;;;;;5471655;26;20530;-73
2024/04/18 08:16:37;;;;;;;3.00;2.70;;;7.60;99.90;;;;;;5469687;26;21109;-74
2024/04/18 08:19:08;;;;;;;3.50;3.30;;;7.60;99.90;;;;;;5465810;26;20563;-74
2024/04/18 08:21:37;;;;;;;3.07;2.83;;;7.70;99.90;;;;;;5474696;26;20519;-76
2024/04/18 08:24:18;;;;;;;3.30;3.03;;;8.00;99.90;;;;;;5470403;26;20587;-73
2024/04/18 08:26:48;;;;;;;3.37;3.13;;;8.20;1.00;;;;;;5472853;26;20532;-74
2024/04/18 08:29:22;;;;;;;3.60;3.40;;;8.30;99.90;;;;;;5467315;26;20533;-75
2024/04/18 08:31:57;;;;;;;3.10;2.90;;;8.20;1.00;;;;;;5467339;26;20537;-77
2024/04/18 08:34:27;;;;;;;2.83;2.73;;;8.30;1.00;;;;;;5462601;26;20464;-75
2024/04/18 08:37:00;;;;;;;3.30;3.10;;;8.30;99.90;;;;;;5468691;26;20828;-74
2024/04/18 08:39:30;;;;;;;3.43;3.23;;;8.30;99.90;;;;;;5464768;26;20548;-76
2024/04/18 08:42:01;;;;;;;3.77;3.57;;;8.40;99.90;;;;;;5468983;26;21059;-77
2024/04/18 08:44:31;;;;;;;3.43;3.23;;;8.30;99.90;;;;;;5471836;26;20485;-76
2024/04/18 08:47:04;;;;;;;3.30;3.10;;;8.30;99.90;;;;;;5464199;26;20579;-76
2024/04/18 08:49:37;;;;;;;3.73;3.53;;;8.40;99.90;;;;;;5462076;26;20467;-74
2024/04/18 08:52:09;;;;;;;3.37;3.17;;;8.50;99.90;;;;;;5465779;26;20515;-78
2024/04/18 08:54:39;;;;;;;3.70;3.50;;;8.50;99.90;;;;;;5468893;26;20579;-76
2024/04/18 08:57:12;;;;;;;3.53;3.33;;;8.60;99.90;;;;;;5468036;26;20583;-73
2024/04/18 08:59:45;;;;;;;3.13;2.93;;;8.60;99.90;;;;;;5470512;26;21014;-78
2024/04/18 09:02:18;;;;;;;3.87;3.67;;;8.50;99.90;;;;;;5468675;26;20471;-78
2024/04/18 09:04:49;;;;;;;3.20;3.00;;;8.60;99.90;;;;;;5472397;26;20472;-76
2024/04/18 09:07:19;;;;;;;3.07;2.87;;;8.60;99.90;;;;;;5466028;26;20466;-76
2024/04/18 09:09:53;;;;;;;3.03;2.83;;;8.50;99.90;;;;;;5466755;26;20579;-76
2024/04/18 09:12:23;;;;;;;2.67;2.57;;;8.50;99.90;;;;;;5470545;26;20577;-76
2024/04/18 09:14:53;;;;;;;2.30;2.20;;;8.40;99.90;;;;;;5464051;26;20529;-74
2024/04/18 09:17:27;;;;;;;2.30;2.20;;;8.40;99.90;;;;;;5469364;26;20572;-76
2024/04/18 09:19:57;;;;;;;4.20;3.90;;;8.40;99.90;;;;;;5460427;26;20454;-77
2024/04/18 09:22:27;;;;;;;3.27;3.13;;;8.40;99.90;;;;;;5469259;26;20470;-76
2024/04/18 09:24:57;;;;;;;3.00;2.80;;;8.40;99.90;;;;;;5471633;26;20473;-75
2024/04/18 09:27:27;;;;;;;2.63;2.53;;;8.50;99.90;;;;;;5470190;26;20480;-74
2024/04/18 09:29:58;;;;;;;3.50;3.30;;;8.60;99.90;;;;;;5469934;26;20468;-78
2024/04/18 09:32:31;;;;;;;3.23;3.03;;;8.80;99.90;;;;;;5468489;26;20469;-76
2024/04/18 09:35:03;;;;;;;3.50;3.30;;;9.00;99.90;;;;;;5466209;26;20505;-76
2024/04/18 09:37:35;;;;;;;3.17;2.97;;;9.10;99.90;;;;;;5471053;26;20463;-74
2024/04/18 09:40:07;;;;;;;3.57;3.33;;;9.20;99.90;;;;;;5470930;26;20527;-76
2024/04/18 09:42:43;;;;;;;3.17;3.03;;;9.20;99.90;;;;;;5472348;26;20526;-77
2024/04/18 09:45:17;;;;;;;3.10;2.83;;;9.30;99.90;;;;;;5471305;26;20510;-74
2024/04/18 09:47:50;;;;;;;3.37;3.17;;;9.30;99.90;;;;;;5468743;26;20517;-74
2024/04/18 09:50:20;;;;;;;3.93;3.73;;;9.40;99.90;;;;;;5467890;26;20474;-76
2024/04/18 09:52:52;;;;;;;3.10;3.00;;;9.50;99.90;;;;;;5464108;26;20477;-75
2024/04/18 09:55:23;;;;;;;3.63;3.43;;;9.60;99.90;;;;;;5462590;26;20471;-76
2024/04/18 09:57:57;;;;;;;3.80;3.60;;;9.90;99.90;;;;;;5469756;26;20523;-74
2024/04/18 10:00:28;;;;;;;4.57;3.50;;;10.00;99.90;;;;;;5465578;26;20915;-75
2024/04/18 10:03:03;;;;;;;4.60;4.40;;;10.10;99.90;;;;;;5466036;26;20466;-76
2024/04/18 10:05:33;;;;;;;4.00;3.80;;;10.10;99.90;;;;;;5468957;26;20545;-75
2024/04/18 10:08:05;;;;;;;3.60;3.40;;;10.30;99.90;;;;;;5467899;26;20525;-76
2024/04/18 10:10:36;;;;;;;3.90;3.70;;;10.30;99.90;;;;;;5469670;26;21127;-78
2024/04/18 10:13:07;;;;;;;3.33;3.13;;;10.40;99.90;;;;;;5474427;26;20931;-78
2024/04/18 10:15:37;;;;;;;3.53;3.33;;;10.50;99.90;;;;;;5469991;26;20515;-78
2024/04/18 10:18:17;;;;;;;4.00;3.80;;;10.50;99.90;;;;;;5462989;26;20462;-79
2024/04/18 10:20:48;;;;;;;3.13;3.00;;;10.40;99.90;;;;;;5465071;26;20461;-75
2024/04/18 10:23:16;;;;;;;3.47;3.27;;;10.30;99.90;;;;;;5467357;26;20462;-74
2024/04/18 10:25:47;;;;;;;3.20;3.10;;;10.20;99.90;;;;;;5473723;26;20467;-78
2024/04/18 10:28:25;;;;;;;3.37;3.20;;;10.20;99.90;;;;;;5462745;26;20463;-76
2024/04/18 10:31:02;;;;;;;3.43;3.23;;;10.20;99.90;;;;;;5469135;26;21148;-78
2024/04/18 10:33:36;;;;;;;3.80;3.50;;;10.20;99.90;;;;;;5472626;26;20532;-75
2024/04/18 10:36:10;;;;;;;3.60;3.40;;;10.30;99.90;;;;;;5473620;26;20558;-77
2024/04/18 10:38:45;;;;;;;3.60;3.30;;;10.40;99.90;;;;;;5468923;26;20508;-73
2024/04/18 10:41:16;;;;;;;3.47;3.10;;;10.50;99.90;;;;;;5470581;26;21070;-75
2024/04/18 10:43:48;;;;;;;3.00;2.90;;;10.60;99.90;;;;;;5467717;26;20456;-76
2024/04/18 10:46:18;;;;;;;3.00;2.80;;;10.70;99.90;;;;;;5466737;26;20471;-78
2024/04/18 10:48:54;;;;;;;3.33;3.13;;;10.70;99.90;;;;;;5465304;26;20496;-77
2024/04/18 10:51:26;;;;;;;3.63;3.43;;;10.80;99.90;;;;;;5466311;26;20485;-79
2024/04/18 10:53:56;;;;;;;3.83;3.63;;;10.70;99.90;;;;;;5466440;26;20972;-77
2024/04/18 10:56:26;;;;;;;4.17;3.87;;;10.60;99.90;;;;;;5473675;26;20536;-79
2024/04/18 10:58:58;;;;;;;4.50;4.20;;;10.50;99.90;;;;;;5470814;26;21058;-75
2024/04/18 11:01:31;;;;;;;4.30;3.90;;;10.20;99.90;;;;;;5477630;26;20523;-75
2024/04/18 11:04:04;;;;;;;3.83;3.53;;;10.00;99.90;;;;;;5470617;26;20462;-76
2024/04/18 11:06:34;;;;;;;2.83;2.63;;;9.80;99.90;;;;;;5468969;26;20439;-78
2024/04/18 11:09:04;;;;;;;2.90;2.70;;;9.60;99.90;;;;;;5466848;26;21074;-76
2024/04/18 11:11:38;;;;;;;3.10;2.90;;;9.50;99.90;;;;;;5473923;26;20457;-73
2024/04/18 11:14:06;;;;;;;3.00;2.87;;;9.40;99.90;;;;;;5469139;26;20466;-79
2024/04/18 11:16:39;;;;;;;3.67;3.37;;;9.20;99.90;;;;;;5475923;26;20507;-77
2024/04/18 11:19:12;;;;;;;3.43;2.73;;;9.10;99.90;;;;;;5472208;26;20459;-76
2024/04/18 11:21:43;;;;;;;3.47;3.17;;;9.00;99.90;;;;;;5476920;26;20458;-75
2024/04/18 11:24:13;;;;;;;3.70;3.43;;;9.00;99.90;;;;;;5481971;26;20521;-77
2024/04/18 11:26:43;;;;;;;3.40;3.20;;;8.90;99.90;;;;;;5474211;26;20517;-74
2024/04/18 11:29:13;;;;;;;3.53;3.40;;;8.90;99.90;;;;;;5478435;26;20868;-75
2024/04/18 11:31:43;;;;;;;3.70;3.50;;;9.00;99.90;;;;;;5474046;25;20453;-77
2024/04/18 11:34:16;;;;;;;4.13;3.67;;;9.10;99.90;;;;;;5474853;26;20482;-74
2024/04/18 11:36:46;;;;;;;3.70;3.50;;;9.30;99.90;;;;;;5471464;26;20465;-74
2024/04/18 11:39:16;;;;;;;4.33;4.13;;;9.60;99.90;;;;;;5467824;26;20555;-77
2024/04/18 11:41:46;;;;;;;4.60;4.30;;;9.60;99.90;;;;;;5470733;26;20517;-78
2024/04/18 11:44:16;;;;;;;4.57;4.33;;;9.90;99.90;;;;;;5472481;26;20507;-74
2024/04/18 11:46:48;;;;;;;3.57;3.37;;;10.20;99.90;;;;;;5480013;26;20554;-78
2024/04/18 11:49:21;;;;;;;5.13;4.83;;;10.40;99.90;;;;;;5473403;26;20469;-75
2024/04/18 11:51:51;;;;;;;4.80;4.50;;;10.50;99.90;;;;;;5471033;26;20470;-76
2024/04/18 11:54:21;;;;;;;5.90;5.47;;;10.70;99.90;;;;;;5470727;26;20476;-76
2024/04/18 11:56:51;;;;;;;5.00;4.60;;;10.70;99.90;;;;;;5470058;26;20455;-76
2024/04/18 11:59:21;;;;;;;5.23;4.63;;;10.80;99.90;;;;;;5478010;26;21362;-77
2024/04/18 12:01:51;;;;;;;3.70;3.50;;;10.80;99.90;;;;;;5473559;26;20470;-75
2024/04/18 12:04:24;;;;;;;3.87;3.67;;;10.50;99.90;;;;;;5470764;26;20476;-76
2024/04/18 12:06:54;;;;;;;4.00;3.70;;;10.20;99.90;;;;;;5471509;26;21261;-75
2024/04/18 12:09:24;;;;;;;4.03;3.80;;;10.10;99.90;;;;;;5472654;26;20480;-74
2024/04/18 12:11:54;;;;;;;3.30;3.10;;;10.00;99.90;;;;;;5475894;26;20490;-75
2024/04/18 12:14:24;;;;;;;4.40;4.00;;;10.10;99.90;;;;;;5463650;26;20473;-74
2024/04/18 12:16:51;;;;;;;4.40;4.10;;;10.10;99.90;;;;;;5473089;26;20515;-74
2024/04/18 12:19:24;;;;;;;5.00;4.60;;;10.10;99.90;;;;;;5480561;26;20507;-76
2024/04/18 12:21:54;;;;;;;4.80;4.40;;;10.20;99.90;;;;;;5478585;26;20543;-73
2024/04/18 12:24:24;;;;;;;5.13;4.83;;;10.30;99.90;;;;;;5462748;26;20557;-74
2024/04/18 12:26:54;;;;;;;4.20;4.00;;;10.40;99.90;;;;;;5471483;26;20464;-75
2024/04/18 12:29:24;;;;;;;4.20;4.00;;;10.40;99.90;;;;;;5474340;26;20822;-75
2024/04/18 12:31:54;;;;;;;3.77;3.57;;;10.60;99.90;;;;;;5477914;25;20846;-74
2024/04/18 12:34:27;;;;;;;4.50;4.13;;;10.50;99.90;;;;;;5466555;26;20549;-77
2024/04/18 12:36:57;;;;;;;3.43;3.23;;;10.50;99.90;;;;;;5472017;26;20473;-76
2024/04/18 12:39:27;;;;;;;4.13;3.83;;;10.50;99.90;;;;;;5466804;26;20514;-76
2024/04/18 12:41:59;;;;;;;3.53;3.33;;;10.50;99.90;;;;;;5486301;25;20463;-77
2024/04/18 12:44:29;;;;;;;3.97;3.77;;;10.50;99.90;;;;;;5471458;26;20516;-73
2024/04/18 12:47:01;;;;;;;3.70;3.40;;;10.50;99.90;;;;;;5470970;26;21052;-74
2024/04/18 12:49:33;;;;;;;4.07;3.77;;;10.40;99.90;;;;;;5467559;26;20488;-73
2024/04/18 12:52:03;;;;;;;4.00;3.70;;;10.30;99.90;;;;;;5470451;26;20528;-77
2024/04/18 12:54:33;;;;;;;4.40;4.10;;;10.20;99.90;;;;;;5465242;26;20538;-77
2024/04/18 12:57:03;;;;;;;4.40;4.13;;;10.20;99.90;;;;;;5474501;26;20469;-78
2024/04/18 12:59:33;;;;;;;4.53;4.23;;;10.20;99.90;;;;;;5468936;26;20480;-76
2024/04/18 13:02:03;;;;;;;4.90;4.50;;;10.10;99.90;;;;;;5466320;26;21080;-76
2024/04/18 13:04:38;;;;;;;4.57;4.13;;;10.10;99.90;;;;;;5468065;26;20591;-76
2024/04/18 13:07:08;;;;;;;3.90;3.70;;;10.20;99.90;;;;;;5467563;26;20479;-77
2024/04/18 13:09:38;;;;;;;4.00;3.80;;;10.20;99.90;;;;;;5468199;26;20539;-78
2024/04/18 13:12:09;;;;;;;3.87;3.60;;;10.10;99.90;;;;;;5467704;26;20524;-78
2024/04/18 13:14:39;;;;;;;3.40;3.20;;;10.10;99.90;;;;;;5467065;26;20492;-77